createdAt,value
2023-02-19T00:01:51.928Z,79.46
2023-02-19T00:04:22.539Z,80.21
2023-02-19T00:06:51.185Z,80.61
2023-02-19T00:09:20.650Z,80.15
2023-02-19T00:11:48.915Z,79.60
2023-02-19T00:14:21.298Z,79.72
2023-02-19T00:16:49.549Z,79.92
2023-02-19T00:19:20.798Z,80.50
2023-02-19T00:21:52.931Z,81.19
2023-02-19T00:24:21.637Z,81.91
2023-02-19T00:26:49.874Z,81.52
2023-02-19T00:29:21.571Z,80.96
2023-02-19T00:31:49.649Z,80.80
2023-02-19T00:34:17.781Z,82.09
2023-02-19T00:36:45.785Z,81.98
2023-02-19T00:39:18.254Z,81.61
2023-02-19T00:41:46.407Z,81.52
2023-02-19T00:44:15.255Z,81.88
2023-02-19T00:46:48.441Z,81.64
2023-02-19T00:49:22.437Z,81.75
2023-02-19T00:51:53.137Z,82.09
2023-02-19T00:54:22.642Z,82.38
2023-02-19T00:56:51.819Z,81.70
2023-02-19T00:59:19.758Z,82.24
2023-02-19T01:01:47.664Z,81.77
2023-02-19T01:04:16.375Z,81.04
2023-02-19T01:06:44.369Z,81.83
2023-02-19T01:09:12.259Z,80.64
2023-02-19T01:11:40.129Z,81.43
2023-02-19T01:14:09.809Z,81.83
2023-02-19T01:16:37.955Z,82.92
2023-02-19T01:19:05.851Z,81.99
2023-02-19T01:21:33.967Z,81.25
2023-02-19T01:24:01.876Z,82.24
2023-02-19T01:26:33.421Z,81.63
2023-02-19T01:29:02.645Z,83.00
2023-02-19T01:31:31.071Z,83.05
2023-02-19T01:34:03.145Z,82.83
2023-02-19T01:36:34.362Z,83.01
2023-02-19T01:39:06.640Z,81.94
2023-02-19T01:41:41.402Z,81.69
2023-02-19T01:44:12.200Z,82.59
2023-02-19T01:46:43.066Z,83.50
2023-02-19T01:49:13.873Z,83.37
2023-02-19T01:52:18.283Z,84.68
2023-02-19T01:54:47.927Z,84.76
2023-02-19T01:57:26.602Z,83.29
2023-02-19T02:00:03.514Z,84.56
2023-02-19T02:02:31.612Z,85.69
2023-02-19T02:05:01.503Z,85.42
2023-02-19T02:07:48.052Z,85.81
2023-02-19T02:10:22.075Z,85.66
2023-02-19T02:12:56.255Z,84.63
2023-02-19T02:15:36.438Z,84.27
2023-02-19T02:18:31.316Z,83.57
2023-02-19T02:21:50.730Z,84.22
2023-02-19T02:25:01.151Z,83.96
2023-02-19T02:28:22.029Z,83.73
2023-02-19T02:31:47.296Z,83.86
2023-02-19T02:34:41.204Z,83.66
2023-02-19T02:37:11.007Z,83.32
2023-02-19T02:39:41.150Z,83.10
2023-02-19T02:42:28.259Z,83.40
2023-02-19T02:45:17.069Z,83.79
2023-02-19T02:47:55.190Z,83.28
2023-02-19T02:50:35.348Z,83.73
2023-02-19T02:54:28.102Z,83.70
2023-02-19T02:56:58.841Z,83.67
2023-02-19T02:59:33.753Z,82.79
2023-02-19T03:02:28.554Z,83.13
2023-02-19T03:05:53.347Z,83.69
2023-02-19T03:08:36.841Z,84.22
2023-02-19T03:11:29.088Z,84.87
2023-02-19T03:14:42.143Z,84.61
2023-02-19T03:17:50.259Z,85.76
2023-02-19T03:20:23.614Z,85.31
2023-02-19T03:22:54.739Z,84.84
2023-02-19T03:25:48.940Z,84.74
2023-02-19T03:28:41.662Z,85.81
2023-02-19T03:31:15.784Z,86.15
2023-02-19T03:33:47.048Z,84.62
2023-02-19T03:36:15.945Z,85.24
2023-02-19T03:39:07.778Z,85.15
2023-02-19T03:41:55.738Z,84.31
2023-02-19T03:44:53.265Z,84.10
2023-02-19T03:47:43.703Z,83.62
2023-02-19T03:50:26.064Z,83.76
2023-02-19T03:53:34.566Z,85.12
2023-02-19T03:56:38.194Z,84.62
2023-02-19T03:59:54.200Z,85.58
2023-02-19T04:02:41.526Z,85.03
2023-02-19T04:05:19.446Z,85.70
2023-02-19T04:07:53.158Z,85.99
2023-02-19T04:10:21.977Z,85.18
2023-02-19T04:13:01.613Z,84.83
2023-02-19T04:15:33.930Z,85.70
2023-02-19T04:18:09.521Z,85.09
2023-02-19T04:20:47.604Z,84.77
2023-02-19T04:23:22.071Z,86.50
2023-02-19T04:25:59.358Z,86.43
2023-02-19T04:28:29.473Z,85.06
2023-02-19T04:30:57.397Z,84.95
2023-02-19T04:33:25.325Z,85.35
2023-02-19T04:35:53.175Z,85.51
2023-02-19T04:38:21.078Z,84.92
2023-02-19T04:40:51.372Z,85.06
2023-02-19T04:43:19.965Z,86.32
2023-02-19T04:45:47.983Z,85.72
2023-02-19T04:48:15.948Z,84.61
2023-02-19T04:50:44.889Z,85.28
2023-02-19T04:53:12.712Z,84.63
2023-02-19T04:55:40.552Z,85.14
2023-02-19T04:58:08.368Z,85.09
2023-02-19T05:00:36.274Z,84.46
2023-02-19T05:03:04.214Z,84.18
2023-02-19T05:05:32.219Z,85.53
2023-02-19T05:08:00.127Z,86.24
2023-02-19T05:10:27.963Z,85.43
2023-02-19T05:12:57.963Z,85.05
2023-02-19T05:15:26.017Z,84.67
2023-02-19T05:17:53.866Z,85.00
2023-02-19T05:20:22.956Z,85.00
2023-02-19T05:22:50.896Z,84.55
2023-02-19T05:25:21.291Z,84.10
2023-02-19T05:27:49.134Z,84.38
2023-02-19T05:30:17.198Z,84.33
2023-02-19T05:32:45.120Z,85.17
2023-02-19T05:35:15.228Z,84.53
2023-02-19T05:37:43.091Z,84.75
2023-02-19T05:40:11.254Z,85.18
2023-02-19T05:42:39.197Z,85.18
2023-02-19T05:45:08.087Z,85.11
2023-02-19T05:47:35.982Z,84.70
2023-02-19T05:50:04.101Z,85.72
2023-02-19T05:52:32.862Z,85.18
2023-02-19T05:55:00.685Z,85.13
2023-02-19T05:57:28.643Z,84.50
2023-02-19T05:59:57.121Z,85.13
2023-02-19T06:02:25.003Z,84.72
2023-02-19T06:04:52.862Z,85.04
2023-02-19T06:07:23.142Z,84.51
2023-02-19T06:09:51.552Z,84.70
2023-02-19T06:12:19.481Z,84.05
2023-02-19T06:14:48.684Z,83.30
2023-02-19T06:17:16.878Z,83.16
2023-02-19T06:19:44.791Z,83.56
2023-02-19T06:22:16.045Z,84.18
2023-02-19T06:24:43.854Z,83.90
2023-02-19T06:27:11.717Z,84.43
2023-02-19T06:29:39.609Z,84.70
2023-02-19T06:32:07.805Z,85.09
2023-02-19T06:34:36.746Z,84.70
2023-02-19T06:37:04.607Z,84.48
2023-02-19T06:39:34.876Z,84.33
2023-02-19T06:42:02.851Z,84.50
2023-02-19T06:44:30.841Z,84.45
2023-02-19T06:46:58.749Z,84.12
2023-02-19T06:49:26.824Z,84.93
2023-02-19T06:51:54.675Z,84.46
2023-02-19T06:54:22.507Z,83.83
2023-02-19T06:56:51.631Z,83.50
2023-02-19T06:59:19.494Z,83.27
2023-02-19T07:01:47.460Z,82.86
2023-02-19T07:04:15.867Z,84.03
2023-02-19T07:06:45.653Z,83.36
2023-02-19T07:09:13.519Z,83.68
2023-02-19T07:11:43.016Z,83.56
2023-02-19T07:14:16.656Z,83.80
2023-02-19T07:16:44.999Z,84.89
2023-02-19T07:19:14.778Z,85.47
2023-02-19T07:21:43.303Z,84.65
2023-02-19T07:24:12.833Z,84.79
2023-02-19T07:26:40.729Z,85.26
2023-02-19T07:29:10.368Z,85.54
2023-02-19T07:31:38.331Z,85.00
2023-02-19T07:34:07.802Z,85.07
2023-02-19T07:36:35.887Z,84.22
2023-02-19T07:39:05.020Z,85.44
2023-02-19T07:41:33.359Z,83.76
2023-02-19T07:44:01.237Z,84.59
2023-02-19T07:46:30.164Z,84.40
2023-02-19T07:48:59.928Z,83.49
2023-02-19T07:51:27.937Z,84.75
2023-02-19T07:53:55.768Z,85.02
2023-02-19T07:56:23.736Z,85.43
2023-02-19T07:58:51.583Z,84.67
2023-02-19T08:01:41.983Z,84.22
2023-02-19T08:04:14.146Z,84.67
2023-02-19T08:06:42.850Z,84.73
2023-02-19T08:09:11.184Z,84.66
2023-02-19T08:12:03.640Z,84.25
2023-02-19T08:14:32.067Z,83.81
2023-02-19T08:17:00.142Z,83.86
2023-02-19T08:19:28.164Z,84.19
2023-02-19T08:21:56.073Z,83.61
2023-02-19T08:24:23.962Z,83.26
2023-02-19T08:26:51.987Z,83.76
2023-02-19T08:29:23.187Z,83.76
2023-02-19T08:32:36.121Z,83.60
2023-02-19T08:34:51.242Z,84.06
2023-02-19T08:37:19.124Z,84.61
2023-02-19T08:39:46.977Z,83.47
2023-02-19T08:42:14.858Z,83.07
2023-02-19T08:44:43.180Z,82.81
2023-02-19T08:47:11.136Z,84.90
2023-02-19T08:49:38.965Z,85.15
2023-02-19T08:52:06.892Z,83.14
2023-02-19T08:54:37.182Z,83.70
2023-02-19T08:57:05.210Z,83.57
2023-02-19T08:59:33.196Z,84.23
2023-02-19T09:02:01.342Z,83.55
2023-02-19T09:04:29.344Z,82.34
2023-02-19T09:06:57.729Z,84.02
2023-02-19T09:09:25.588Z,82.15
2023-02-19T09:11:53.435Z,81.52
2023-02-19T09:14:21.273Z,82.03
2023-02-19T09:16:49.130Z,81.42
2023-02-19T09:19:17.425Z,81.06
2023-02-19T09:21:45.258Z,81.08
2023-02-19T09:24:13.129Z,83.05
2023-02-19T09:26:43.941Z,81.44
2023-02-19T09:29:11.806Z,81.90
2023-02-19T09:31:39.719Z,81.01
2023-02-19T09:34:08.008Z,81.42
2023-02-19T09:36:35.935Z,81.64
2023-02-19T09:39:08.002Z,80.92
2023-02-19T09:42:18.424Z,79.39
2023-02-19T09:44:52.181Z,80.84
2023-02-19T09:47:24.522Z,80.46
2023-02-19T09:50:14.682Z,79.85
2023-02-19T09:52:53.597Z,80.45
2023-02-19T09:55:39.557Z,78.87
2023-02-19T09:58:27.022Z,79.58
2023-02-19T10:00:58.458Z,78.64
2023-02-19T10:03:41.374Z,77.45
2023-02-19T10:06:24.841Z,76.70
2023-02-19T10:09:11.631Z,76.40
2023-02-19T10:11:40.061Z,77.13
2023-02-19T10:14:17.282Z,75.23
2023-02-19T10:16:49.067Z,75.71
2023-02-19T10:19:17.529Z,75.37
2023-02-19T10:21:46.048Z,76.03
2023-02-19T10:24:29.581Z,75.12
2023-02-19T10:26:57.601Z,77.15
2023-02-19T10:29:27.201Z,72.96
2023-02-19T10:32:24.091Z,73.19
2023-02-19T10:35:19.571Z,72.73
2023-02-19T10:37:54.424Z,72.05
2023-02-19T10:40:30.480Z,72.38
2023-02-19T10:43:20.583Z,72.53
2023-02-19T10:45:50.475Z,71.35
2023-02-19T10:48:37.496Z,72.31
2023-02-19T10:51:21.707Z,72.43
2023-02-19T10:54:03.227Z,71.01
2023-02-19T10:56:33.694Z,69.08
2023-02-19T10:59:28.040Z,70.28
2023-02-19T11:02:15.646Z,71.55
2023-02-19T11:05:17.963Z,71.18
2023-02-19T11:07:51.921Z,71.11
2023-02-19T11:10:42.446Z,69.38
2023-02-19T11:13:26.032Z,70.05
2023-02-19T11:15:55.608Z,69.10
2023-02-19T11:18:31.962Z,67.40
2023-02-19T11:21:04.966Z,65.86
2023-02-19T11:23:46.783Z,63.78
2023-02-19T11:26:23.211Z,64.92
2023-02-19T11:29:19.888Z,64.51
2023-02-19T11:31:48.011Z,62.56
2023-02-19T11:34:20.927Z,64.66
2023-02-19T11:37:13.382Z,63.28
2023-02-19T11:39:51.273Z,62.43
2023-02-19T11:42:51.364Z,63.61
2023-02-19T11:46:22.195Z,62.83
2023-02-19T11:49:15.125Z,64.60
2023-02-19T11:52:15.510Z,61.82
2023-02-19T11:55:22.836Z,62.87
2023-02-19T11:58:55.603Z,63.14
2023-02-19T12:02:01.510Z,63.59
2023-02-19T12:04:53.813Z,61.29
2023-02-19T12:08:10.365Z,59.05
2023-02-19T12:10:46.588Z,59.10
2023-02-19T12:13:32.852Z,59.79
2023-02-19T12:16:23.225Z,59.18
2023-02-19T12:19:12.041Z,58.11
2023-02-19T12:22:23.586Z,59.88
2023-02-19T12:25:29.403Z,60.44
2023-02-19T12:29:23.066Z,60.48
2023-02-19T12:32:14.662Z,60.83
2023-02-19T12:35:04.455Z,59.21
2023-02-19T12:38:13.983Z,60.71
2023-02-19T12:41:17.572Z,60.05
2023-02-19T12:44:00.406Z,60.79
2023-02-19T12:46:42.940Z,60.76
2023-02-19T12:49:39.012Z,59.61
2023-02-19T12:52:28.093Z,59.88
2023-02-19T12:55:05.201Z,56.42
2023-02-19T12:57:37.051Z,54.37
2023-02-19T13:00:31.353Z,57.44
2023-02-19T13:03:22.380Z,55.86
2023-02-19T13:06:04.560Z,56.92
2023-02-19T13:09:06.763Z,56.26
2023-02-19T13:12:08.728Z,55.85
2023-02-19T13:14:59.410Z,56.49
2023-02-19T13:17:38.869Z,57.31
2023-02-19T13:20:18.613Z,58.90
2023-02-19T13:24:01.953Z,57.03
2023-02-19T13:27:41.364Z,58.82
2023-02-19T13:30:41.111Z,56.83
2023-02-19T13:33:45.501Z,60.53
2023-02-19T13:36:27.551Z,57.99
2023-02-19T13:38:57.565Z,57.60
2023-02-19T13:41:48.834Z,59.07
2023-02-19T13:44:27.595Z,59.84
2023-02-19T13:46:55.495Z,59.04
2023-02-19T13:49:26.109Z,57.68
2023-02-19T13:51:59.640Z,55.55
2023-02-19T13:54:37.114Z,57.76
2023-02-19T13:57:23.237Z,56.82
2023-02-19T13:59:53.573Z,55.93
2023-02-19T14:02:35.277Z,54.77
2023-02-19T14:05:11.124Z,54.47
2023-02-19T14:07:55.669Z,54.38
2023-02-19T14:10:57.835Z,55.71
2023-02-19T14:13:56.583Z,54.98
2023-02-19T14:16:39.654Z,52.46
2023-02-19T14:19:42.909Z,52.91
2023-02-19T14:22:47.521Z,54.26
2023-02-19T14:25:34.894Z,54.80
2023-02-19T14:28:43.608Z,55.44
2023-02-19T14:31:32.037Z,55.88
2023-02-19T14:34:14.009Z,53.76
2023-02-19T14:37:01.631Z,56.17
2023-02-19T14:39:37.848Z,52.71
2023-02-19T14:42:15.803Z,53.40
2023-02-19T14:45:01.636Z,52.51
2023-02-19T14:47:35.058Z,51.92
2023-02-19T14:50:32.821Z,52.40
2023-02-19T14:53:07.069Z,52.44
2023-02-19T14:55:40.281Z,53.11
2023-02-19T14:58:16.812Z,52.50
2023-02-19T15:00:44.781Z,51.86
2023-02-19T15:03:37.601Z,52.28
2023-02-19T15:06:17.525Z,50.71
2023-02-19T15:08:53.650Z,52.09
2023-02-19T15:11:25.687Z,50.71
2023-02-19T15:14:08.000Z,51.17
2023-02-19T15:16:37.356Z,51.91
2023-02-19T15:19:10.504Z,50.72
2023-02-19T15:21:46.402Z,48.63
2023-02-19T15:24:17.193Z,50.11
2023-02-19T15:26:51.676Z,51.79
2023-02-19T15:29:26.649Z,49.72
2023-02-19T15:31:59.089Z,50.81
2023-02-19T15:34:30.411Z,50.34
2023-02-19T15:37:12.722Z,49.91
2023-02-19T15:39:48.343Z,52.00
2023-02-19T15:42:25.258Z,51.41
2023-02-19T15:45:07.399Z,52.34
2023-02-19T15:47:44.331Z,52.08
2023-02-19T15:50:41.269Z,52.56
2023-02-19T15:53:29.900Z,51.16
2023-02-19T15:56:29.338Z,51.19
2023-02-19T15:59:05.970Z,53.05
2023-02-19T16:01:40.501Z,51.47
2023-02-19T16:04:18.360Z,51.26
2023-02-19T16:07:03.732Z,52.20
2023-02-19T16:09:39.526Z,51.58
2023-02-19T16:12:24.583Z,51.60
2023-02-19T16:14:53.783Z,52.44
2023-02-19T16:17:27.805Z,52.03
2023-02-19T16:20:01.375Z,51.57
2023-02-19T16:22:35.205Z,53.87
2023-02-19T16:25:06.899Z,51.67
2023-02-19T16:27:41.598Z,53.75
2023-02-19T16:30:30.427Z,53.60
2023-02-19T16:33:41.788Z,54.59
2023-02-19T16:36:33.541Z,53.59
2023-02-19T16:39:19.131Z,54.62
2023-02-19T16:41:47.001Z,55.67
2023-02-19T16:44:32.690Z,55.21
2023-02-19T16:47:18.055Z,56.40
2023-02-19T16:49:45.993Z,57.05
2023-02-19T16:52:16.775Z,56.39
2023-02-19T16:54:44.746Z,57.77
2023-02-19T16:57:12.599Z,58.08
2023-02-19T16:59:40.484Z,57.40
2023-02-19T17:02:15.464Z,58.91
2023-02-19T17:04:43.652Z,59.14
2023-02-19T17:07:16.581Z,58.83
2023-02-19T17:09:44.675Z,58.84
2023-02-19T17:12:16.240Z,58.83
2023-02-19T17:14:44.662Z,59.24
2023-02-19T17:17:12.798Z,59.97
2023-02-19T17:19:40.735Z,59.65
2023-02-19T17:22:08.709Z,59.78
2023-02-19T17:24:36.622Z,59.53
2023-02-19T17:27:05.642Z,59.70
2023-02-19T17:29:33.973Z,60.00
2023-02-19T17:32:02.001Z,60.56
2023-02-19T17:34:30.056Z,60.16
2023-02-19T17:36:57.891Z,60.44
2023-02-19T17:39:25.907Z,60.29
2023-02-19T17:41:53.739Z,61.25
2023-02-19T17:44:21.567Z,61.22
2023-02-19T17:46:49.583Z,61.49
2023-02-19T17:49:17.558Z,61.64
2023-02-19T17:51:45.511Z,62.15
2023-02-19T17:54:13.403Z,61.74
2023-02-19T17:56:43.529Z,61.73
2023-02-19T17:59:12.045Z,63.05
2023-02-19T18:01:39.996Z,62.49
2023-02-19T18:04:07.959Z,63.24
2023-02-19T18:06:35.918Z,63.54
2023-02-19T18:09:03.912Z,64.12
2023-02-19T18:11:31.804Z,63.98
2023-02-19T18:13:59.734Z,63.99
2023-02-19T18:16:27.962Z,64.08
2023-02-19T18:18:58.234Z,64.22
2023-02-19T18:21:26.295Z,64.59
2023-02-19T18:23:54.151Z,64.76
2023-02-19T18:26:22.232Z,64.68
2023-02-19T18:28:50.092Z,65.02
2023-02-19T18:31:17.984Z,64.67
2023-02-19T18:33:45.893Z,64.77
2023-02-19T18:36:13.817Z,65.19
2023-02-19T18:38:42.109Z,65.25
2023-02-19T18:41:14.123Z,65.46
2023-02-19T18:43:42.211Z,65.12
2023-02-19T18:46:10.605Z,65.09
2023-02-19T18:48:39.108Z,65.17
2023-02-19T18:51:11.077Z,65.15
2023-02-19T18:53:39.277Z,64.89
2023-02-19T18:56:08.935Z,65.75
2023-02-19T18:58:36.824Z,65.55
2023-02-19T19:01:04.947Z,65.92
2023-02-19T19:03:32.817Z,65.93
2023-02-19T19:06:00.726Z,66.48
2023-02-19T19:08:30.602Z,66.50
2023-02-19T19:10:58.591Z,66.18
2023-02-19T19:13:26.451Z,66.89
2023-02-19T19:15:54.381Z,67.86
2023-02-19T19:18:22.309Z,67.50
2023-02-19T19:20:50.270Z,67.39
2023-02-19T19:23:18.143Z,67.48
2023-02-19T19:25:46.005Z,67.46
2023-02-19T19:28:13.839Z,67.43
2023-02-19T19:30:42.072Z,67.98
2023-02-19T19:33:11.982Z,68.26
2023-02-19T19:35:39.897Z,68.31
2023-02-19T19:38:07.724Z,69.01
2023-02-19T19:40:35.570Z,68.62
2023-02-19T19:43:03.393Z,68.46
2023-02-19T19:45:31.248Z,69.02
2023-02-19T19:47:59.089Z,68.86
2023-02-19T19:50:27.136Z,68.54
2023-02-19T19:52:54.980Z,68.66
2023-02-19T19:55:22.920Z,68.84
2023-02-19T19:57:52.169Z,68.80
2023-02-19T20:00:23.052Z,68.84
2023-02-19T20:02:50.976Z,69.29
2023-02-19T20:05:19.089Z,68.94
2023-02-19T20:07:47.096Z,68.98
2023-02-19T20:10:17.660Z,68.87
2023-02-19T20:12:45.915Z,69.20
2023-02-19T20:15:18.930Z,69.16
2023-02-19T20:17:46.778Z,69.20
2023-02-19T20:20:19.434Z,69.60
2023-02-19T20:22:47.281Z,69.25
2023-02-19T20:25:16.106Z,69.55
2023-02-19T20:27:44.092Z,69.58
2023-02-19T20:30:14.834Z,69.27
2023-02-19T20:32:43.108Z,69.90
2023-02-19T20:35:11.277Z,69.74
2023-02-19T20:37:40.435Z,70.21
2023-02-19T20:40:11.345Z,70.41
2023-02-19T20:42:39.488Z,70.25
2023-02-19T20:45:08.030Z,69.90
2023-02-19T20:47:37.582Z,70.64
2023-02-19T20:50:07.462Z,70.76
2023-02-19T20:52:35.349Z,70.35
2023-02-19T20:55:03.706Z,70.63
2023-02-19T20:57:31.591Z,70.73
2023-02-19T20:59:59.462Z,71.05
2023-02-19T21:02:29.379Z,71.57
2023-02-19T21:04:58.097Z,70.93
2023-02-19T21:07:27.011Z,71.33
2023-02-19T21:09:55.205Z,71.39
2023-02-19T21:12:23.226Z,71.43
2023-02-19T21:14:51.229Z,71.12
2023-02-19T21:17:19.065Z,71.09
2023-02-19T21:19:50.156Z,71.88
2023-02-19T21:22:18.213Z,71.48
2023-02-19T21:24:49.502Z,70.88
2023-02-19T21:27:18.303Z,71.09
2023-02-19T21:29:47.382Z,70.79
2023-02-19T21:32:15.447Z,71.00
2023-02-19T21:34:43.576Z,71.70
2023-02-19T21:37:11.491Z,71.05
2023-02-19T21:39:39.422Z,71.61
2023-02-19T21:42:07.331Z,72.39
2023-02-19T21:44:35.292Z,71.85
2023-02-19T21:47:03.398Z,71.60
2023-02-19T21:49:31.298Z,71.88
2023-02-19T21:51:59.097Z,72.29
2023-02-19T21:54:26.922Z,71.94
2023-02-19T21:56:55.135Z,72.08
2023-02-19T21:59:23.599Z,72.00
2023-02-19T22:01:51.502Z,71.91
2023-02-19T22:04:22.006Z,71.83
2023-02-19T22:06:50.487Z,72.55
2023-02-19T22:09:19.893Z,72.65
2023-02-19T22:11:47.767Z,72.28
2023-02-19T22:14:15.720Z,73.05
2023-02-19T22:16:43.635Z,73.21
2023-02-19T22:19:13.299Z,73.03
2023-02-19T22:21:45.259Z,73.40
2023-02-19T22:24:22.034Z,73.46
2023-02-19T22:26:54.752Z,73.39
2023-02-19T22:29:22.843Z,73.37
2023-02-19T22:31:51.333Z,73.54
2023-02-19T22:34:19.334Z,73.78
2023-02-19T22:36:47.362Z,73.54
2023-02-19T22:39:26.873Z,73.92
2023-02-19T22:41:54.780Z,74.91
2023-02-19T22:44:22.727Z,74.42
2023-02-19T22:46:56.599Z,74.15
2023-02-19T22:49:24.694Z,74.60
2023-02-19T22:52:05.737Z,74.15
2023-02-19T22:54:34.559Z,74.29
2023-02-19T22:57:02.930Z,74.04
2023-02-19T22:59:30.812Z,74.42
2023-02-19T23:01:58.740Z,74.39
2023-02-19T23:04:26.791Z,75.09
2023-02-19T23:06:54.896Z,75.01
2023-02-19T23:09:29.115Z,75.12
2023-02-19T23:12:08.335Z,74.57
2023-02-19T23:14:36.757Z,74.95
2023-02-19T23:17:05.073Z,75.01
2023-02-19T23:19:33.569Z,74.89
2023-02-19T23:22:01.436Z,75.79
2023-02-19T23:24:29.278Z,75.05
2023-02-19T23:26:57.657Z,75.58
2023-02-19T23:29:27.952Z,75.31
2023-02-19T23:31:55.895Z,75.00
2023-02-19T23:34:24.450Z,75.39
2023-02-19T23:36:53.891Z,75.77
2023-02-19T23:39:22.650Z,75.75
2023-02-19T23:41:56.778Z,75.72
2023-02-19T23:44:25.807Z,75.51
2023-02-19T23:46:53.705Z,76.06
2023-02-19T23:49:21.594Z,76.39
2023-02-19T23:51:49.464Z,76.61
2023-02-19T23:54:17.326Z,76.58
2023-02-19T23:56:45.180Z,77.40
2023-02-19T23:59:13.296Z,77.07
